Time;durP1;ratioP1;P1;durP2;ratioP2;P2;SDS_P1;SDS_P2;PMS_P1;PMS_P2;Temp;Humidity;BMP_temperature;BMP_pressure;BME280_temperature;BME280_humidity;BME280_pressure;Samples;Min_cycle;Max_cycle;Signal;HPM_P1;HPM_P2
2024/02/11 00:01:54;621504.00;2.07;1071.37;0.00;0.00;0.62;;;;;13.90;5.30;;;;;;2274125;61;1337;-90
2024/02/11 00:04:24;417875.00;1.39;720.54;0.00;0.00;0.62;;;;;14.10;5.30;;;;;;2272740;61;1313;-90
2024/02/11 00:06:51;91484.00;0.30;158.87;0.00;0.00;0.62;;;;;14.10;5.60;;;;;;2323897;56;3726;-88
2024/02/11 00:09:18;372483.00;1.24;642.50;0.00;0.00;0.62;;;;;14.20;4.70;;;;;;2272398;61;1018;-89
2024/02/11 00:11:45;143274.00;0.48;248.21;0.00;0.00;0.62;;;;;14.20;4.70;;;;;;2272746;61;1168;-90
2024/02/11 00:14:12;193692.00;0.65;335.06;0.00;0.00;0.62;;;;;14.30;4.30;;;;;;2272657;61;2007;-88
2024/02/11 00:26:47;567703.00;1.89;978.48;0.00;0.00;0.62;;;;;13.20;8.50;;;;;;2273733;61;1973;-90
2024/02/11 02:12:17;2252740.00;7.51;4156.86;18109.00;0.06;32.00;;;;;14.30;5.20;;;;;;2274577;61;1215;-89
2024/02/11 02:27:22;857506.00;2.86;1481.61;0.00;0.00;0.62;;;;;13.00;9.20;;;;;;2274216;61;1981;-86
2024/02/11 02:39:50;112797.00;0.38;195.66;0.00;0.00;0.62;;;;;12.00;11.50;;;;;;2273919;61;1352;-85
2024/02/11 02:44:55;73213.00;0.24;127.31;0.00;0.00;0.62;;;;;11.30;13.70;;;;;;2269820;61;1237;-87
2024/02/11 02:57:31;55114.00;0.18;96.03;0.00;0.00;0.62;;;;;11.00;13.20;;;;;;2273595;61;1442;-87
2024/02/11 03:00:00;10880.00;0.04;19.47;0.00;0.00;0.62;;;;;10.90;12.20;;;;;;2272113;61;1090;-85
2024/02/11 03:02:29;166509.00;0.56;288.25;0.00;0.00;0.62;;;;;10.80;10.60;;;;;;2287510;56;3707;-86
2024/02/11 03:04:56;148012.00;0.49;256.38;0.00;0.00;0.62;;;;;10.60;10.80;;;;;;2272213;61;1038;-87
2024/02/11 03:07:24;0.00;0.00;0.62;0.00;0.00;0.62;;;;;10.40;10.30;;;;;;2272260;61;2006;-87
2024/02/11 03:09:50;254787.00;0.85;440.18;0.00;0.00;0.62;;;;;10.00;11.60;;;;;;2272261;61;1029;-88
2024/02/11 03:12:17;100532.00;0.34;174.49;0.00;0.00;0.62;;;;;10.20;13.40;;;;;;2272185;61;1238;-87
2024/02/11 03:14:44;51591.00;0.17;89.94;0.00;0.00;0.62;;;;;10.40;11.10;;;;;;2272184;61;903;-86
2024/02/11 03:17:12;88574.00;0.30;153.85;0.00;0.00;0.62;;;;;10.30;10.90;;;;;;2272285;61;1145;-88
2024/02/11 03:19:41;194176.00;0.65;335.90;0.00;0.00;0.62;;;;;10.00;10.90;;;;;;2295177;56;3750;-88
2024/02/11 03:22:11;3696.00;0.01;7.03;0.00;0.00;0.62;;;;;10.10;14.10;;;;;;2280364;39;3568;-89
2024/02/11 03:24:38;39864.00;0.13;69.65;0.00;0.00;0.62;;;;;10.20;10.20;;;;;;2272122;61;1187;-89
2024/02/11 03:27:05;10494.00;0.03;18.80;0.00;0.00;0.62;;;;;10.40;11.40;;;;;;2272111;61;1911;-87
2024/02/11 03:29:32;40791.00;0.14;71.26;0.00;0.00;0.62;;;;;10.20;10.80;;;;;;2272016;61;1620;-85
2024/02/11 03:34:34;270411.00;0.90;467.05;0.00;0.00;0.62;;;;;10.50;7.70;;;;;;2273625;61;1470;-86
2024/02/11 03:37:01;14743.00;0.05;26.17;0.00;0.00;0.62;;;;;10.40;10.30;;;;;;2272133;61;1003;-88
2024/02/11 03:39:28;7474.00;0.02;13.57;0.00;0.00;0.62;;;;;10.20;10.40;;;;;;2272234;61;1689;-86
2024/02/11 03:41:55;1921.00;0.01;3.95;0.00;0.00;0.62;;;;;10.20;10.20;;;;;;2271998;61;2367;-88
2024/02/11 03:44:22;155679.00;0.52;269.59;0.00;0.00;0.62;;;;;10.20;10.40;;;;;;2272061;61;1431;-86
2024/02/11 03:46:49;52186.00;0.17;90.97;0.00;0.00;0.62;;;;;10.60;9.60;;;;;;2271988;61;2004;-87
2024/02/11 03:49:16;7178.00;0.02;13.06;0.00;0.00;0.62;;;;;10.60;7.70;;;;;;2272165;61;1075;-87
2024/02/11 03:51:48;103302.00;0.34;179.27;0.00;0.00;0.62;;;;;10.20;7.30;;;;;;2290154;39;3756;-87
2024/02/11 03:54:15;43630.00;0.15;76.17;0.00;0.00;0.62;;;;;10.30;7.70;;;;;;2271874;61;1325;-86
2024/02/11 03:56:42;0.00;0.00;0.62;0.00;0.00;0.62;;;;;10.70;8.00;;;;;;2272057;61;1207;-88
2024/02/11 03:59:10;0.00;0.00;0.62;0.00;0.00;0.62;;;;;10.60;5.40;;;;;;2277083;55;3755;-86
2024/02/11 04:06:44;170800.00;0.57;295.64;0.00;0.00;0.62;;;;;10.50;7.30;;;;;;2265421;61;1892;-87
2024/02/11 04:14:12;34332.00;0.11;60.08;0.00;0.00;0.62;;;;;10.20;6.50;;;;;;2273930;61;1420;-87
2024/02/11 04:16:44;31854.00;0.11;55.79;0.00;0.00;0.62;;;;;10.10;6.80;;;;;;2272044;61;1561;-86
2024/02/11 04:19:11;69211.00;0.23;120.40;0.00;0.00;0.62;;;;;10.40;6.50;;;;;;2272061;61;1034;-88
2024/02/11 04:21:40;1922.00;0.01;3.95;0.00;0.00;0.62;;;;;9.70;7.70;;;;;;2272034;61;1054;-88
2024/02/11 04:24:12;57990.00;0.19;101.00;0.00;0.00;0.62;;;;;9.40;8.60;;;;;;2272028;61;1381;-87
2024/02/11 04:29:10;29366.00;0.10;51.49;0.00;0.00;0.62;;;;;9.20;10.30;;;;;;2273470;61;1416;-90
2024/02/11 04:31:39;93117.00;0.31;161.69;0.00;0.00;0.62;;;;;9.00;9.50;;;;;;2271956;61;1756;-88
2024/02/11 04:34:08;63465.00;0.21;110.47;0.00;0.00;0.62;;;;;9.00;10.50;;;;;;2271955;61;1462;-89
2024/02/11 04:36:36;138178.00;0.46;239.43;21290.00;0.07;37.50;;;;;8.90;10.00;;;;;;2271915;61;1687;-88
2024/02/11 04:39:07;3326.00;0.01;6.38;0.00;0.00;0.62;;;;;9.10;14.20;;;;;;2271983;61;2384;-89
2024/02/11 04:41:36;0.00;0.00;0.62;0.00;0.00;0.62;;;;;9.00;9.60;;;;;;2272098;61;1039;-88
2024/02/11 04:44:05;22406.00;0.07;39.44;0.00;0.00;0.62;;;;;9.00;11.50;;;;;;2271871;61;1758;-87
2024/02/11 04:46:32;37536.00;0.13;65.63;0.00;0.00;0.62;;;;;9.20;9.70;;;;;;2272081;61;1066;-87
2024/02/11 04:48:59;0.00;0.00;0.62;0.00;0.00;0.62;;;;;9.40;8.70;;;;;;2276591;55;3778;-87
2024/02/11 04:51:27;142191.00;0.47;246.35;0.00;0.00;0.62;;;;;9.50;9.40;;;;;;2271911;61;1687;-87
2024/02/11 04:53:54;23379.00;0.08;41.12;0.00;0.00;0.62;;;;;9.50;7.90;;;;;;2271952;61;1717;-87
2024/02/11 04:56:23;16720.00;0.06;29.59;0.00;0.00;0.62;;;;;9.50;8.60;;;;;;2271946;61;2009;-88
2024/02/11 04:58:52;8057.00;0.03;14.58;0.00;0.00;0.62;;;;;9.40;7.70;;;;;;2271986;61;1797;-87
2024/02/11 05:01:20;14503.00;0.05;25.75;0.00;0.00;0.62;;;;;9.30;7.70;;;;;;2271868;61;1026;-86
2024/02/11 05:03:47;102935.00;0.34;178.64;0.00;0.00;0.62;;;;;9.20;7.50;;;;;;2272581;61;1596;-87
2024/02/11 05:06:18;37253.00;0.12;65.14;0.00;0.00;0.62;;;;;8.90;7.80;;;;;;2272847;61;1054;-88
2024/02/11 05:08:46;0.00;0.00;0.62;0.00;0.00;0.62;;;;;8.60;10.30;;;;;;2272728;61;1944;-90
2024/02/11 05:11:14;0.00;0.00;0.62;0.00;0.00;0.62;;;;;8.60;9.90;;;;;;2272713;61;1054;-88
2024/02/11 05:13:43;134501.00;0.45;233.09;0.00;0.00;0.62;;;;;8.70;9.90;;;;;;2272704;61;1360;-87
2024/02/11 05:16:15;15593.00;0.05;27.64;0.00;0.00;0.62;;;;;8.40;9.70;;;;;;2272750;61;1149;-88
2024/02/11 05:18:43;0.00;0.00;0.62;0.00;0.00;0.62;;;;;8.60;9.80;;;;;;2272685;61;1332;-88
2024/02/11 05:21:10;107251.00;0.36;186.09;0.00;0.00;0.62;;;;;8.40;9.70;;;;;;2272702;61;1031;-88
2024/02/11 05:23:37;9569.00;0.03;17.20;0.00;0.00;0.62;;;;;8.30;10.30;;;;;;2272816;61;1269;-88
2024/02/11 05:26:09;56453.00;0.19;98.34;0.00;0.00;0.62;;;;;8.20;10.90;;;;;;2272656;61;1105;-88
2024/02/11 05:28:40;15343.00;0.05;27.20;0.00;0.00;0.62;;;;;8.40;11.80;;;;;;2272613;61;2010;-88
2024/02/11 05:31:07;2365.00;0.01;4.72;0.00;0.00;0.62;;;;;8.50;8.70;;;;;;2272646;61;1402;-88
2024/02/11 05:33:36;13376.00;0.04;23.80;0.00;0.00;0.62;;;;;8.50;9.80;;;;;;2272588;61;1286;-89
2024/02/11 05:36:07;60259.00;0.20;104.92;0.00;0.00;0.62;;;;;8.80;8.20;;;;;;2272611;61;1062;-87
2024/02/11 05:38:39;0.00;0.00;0.62;0.00;0.00;0.62;;;;;8.80;12.10;;;;;;2272600;61;1220;-88
2024/02/11 05:41:07;62740.00;0.21;109.21;0.00;0.00;0.62;;;;;8.90;11.00;;;;;;2272566;61;1018;-88
2024/02/11 05:43:35;20921.00;0.07;36.86;0.00;0.00;0.62;;;;;8.90;8.60;;;;;;2272622;61;1287;-87
2024/02/11 05:46:02;31231.00;0.10;54.71;0.00;0.00;0.62;;;;;9.00;10.50;;;;;;2272496;61;1617;-88
2024/02/11 05:48:30;68946.00;0.23;119.94;0.00;0.00;0.62;;;;;9.00;8.80;;;;;;2272576;61;1996;-88
2024/02/11 05:50:59;129664.00;0.43;224.75;0.00;0.00;0.62;;;;;9.40;6.20;;;;;;2272550;61;1056;-88
2024/02/11 05:53:25;4293.00;0.01;8.06;0.00;0.00;0.62;;;;;9.10;7.00;;;;;;2272377;61;1393;-86
2024/02/11 05:55:55;41932.00;0.14;73.23;0.00;0.00;0.62;;;;;9.10;5.70;;;;;;2272502;61;953;-87
2024/02/11 05:58:23;2069.00;0.01;4.21;0.00;0.00;0.62;;;;;9.40;5.50;;;;;;2272558;61;1611;-86
2024/02/11 06:00:53;4433.00;0.01;8.30;0.00;0.00;0.62;;;;;9.40;6.20;;;;;;2272539;61;1692;-87
2024/02/11 06:03:21;4065.00;0.01;7.67;0.00;0.00;0.62;;;;;9.80;8.10;;;;;;2272605;61;1434;-87
2024/02/11 06:05:49;149018.00;0.50;258.12;0.00;0.00;0.62;;;;;9.70;3.90;;;;;;2272545;61;1081;-87
2024/02/11 06:08:17;76593.00;0.26;133.15;0.00;0.00;0.62;;;;;9.80;4.20;;;;;;2272504;61;1996;-87
2024/02/11 06:10:46;99528.00;0.33;172.76;0.00;0.00;0.62;;;;;10.00;5.50;;;;;;2272597;61;974;-87
2024/02/11 06:13:13;191319.00;0.64;330.98;0.00;0.00;0.62;;;;;9.80;3.60;;;;;;2272526;61;1266;-87
2024/02/11 06:15:41;32663.00;0.11;57.19;0.00;0.00;0.62;;;;;9.50;4.10;;;;;;2272450;61;1041;-87
2024/02/11 06:18:09;814.00;0.00;2.03;0.00;0.00;0.62;;;;;9.50;6.40;;;;;;2272362;61;986;-87
2024/02/11 06:20:38;81938.00;0.27;142.38;0.00;0.00;0.62;;;;;9.60;8.20;;;;;;2272418;61;1085;-88
2024/02/11 06:25:36;78453.00;0.26;136.37;0.00;0.00;0.62;;;;;10.30;3.00;;;;;;2274477;61;1376;-87
2024/02/11 06:28:03;93599.00;0.31;162.52;9347.00;0.03;16.82;;;;;10.30;1.00;;;;;;2272444;61;2005;-85
2024/02/11 06:32:58;323120.00;1.08;557.66;0.00;0.00;0.62;;;;;10.20;1.10;;;;;;2273640;61;1420;-86
2024/02/11 06:35:27;77023.00;0.26;133.89;0.00;0.00;0.62;;;;;10.40;1.10;;;;;;2320789;55;3787;-88
2024/02/11 06:37:54;0.00;0.00;0.62;0.00;0.00;0.62;;;;;10.60;1.00;;;;;;2272272;61;1002;-87
2024/02/11 06:42:59;36145.00;0.12;63.22;0.00;0.00;0.62;;;;;10.70;1.00;;;;;;2274279;61;1428;-87
2024/02/11 06:45:28;72780.00;0.24;126.56;0.00;0.00;0.62;;;;;10.70;1.00;;;;;;2272387;61;1620;-87
2024/02/11 06:47:55;48749.00;0.16;85.02;0.00;0.00;0.62;;;;;10.80;1.00;;;;;;2272410;61;2002;-88
2024/02/11 06:50:22;218907.00;0.73;378.46;0.00;0.00;0.62;;;;;10.70;1.00;;;;;;2272399;61;1643;-87
2024/02/11 06:52:50;151400.00;0.50;262.22;0.00;0.00;0.62;;;;;10.70;1.00;;;;;;2272319;61;1306;-88
2024/02/11 06:55:19;43524.00;0.15;75.98;0.00;0.00;0.62;;;;;10.70;1.00;;;;;;2272337;61;1070;-87
2024/02/11 06:57:45;7717.00;0.03;13.99;0.00;0.00;0.62;;;;;10.80;1.00;;;;;;2272212;61;2406;-88
2024/02/11 07:00:18;282842.00;0.94;488.42;31090.00;0.10;54.47;;;;;10.80;1.00;;;;;;2280595;39;3571;-86
2024/02/11 07:02:47;14191.00;0.05;25.21;0.00;0.00;0.62;;;;;11.00;1.00;;;;;;2272256;61;1706;-88
2024/02/11 07:05:15;834.00;0.00;2.07;0.00;0.00;0.62;;;;;11.10;1.00;;;;;;2272365;61;1231;-88
2024/02/11 07:07:44;38978.00;0.13;68.12;0.00;0.00;0.62;;;;;10.90;1.00;;;;;;2272233;61;2004;-87
2024/02/11 07:10:11;0.00;0.00;0.62;0.00;0.00;0.62;;;;;11.30;1.00;;;;;;2272274;61;1573;-88
2024/02/11 07:12:38;84048.00;0.28;146.03;0.00;0.00;0.62;;;;;11.10;1.00;;;;;;2272105;61;2313;-88
2024/02/11 07:15:06;20342.00;0.07;35.86;0.00;0.00;0.62;;;;;11.20;1.00;;;;;;2280708;39;3605;-88
2024/02/11 07:20:11;108722.00;0.36;188.62;0.00;0.00;0.62;;;;;11.20;1.00;;;;;;2274360;61;1404;-88
2024/02/11 07:22:40;24378.00;0.08;42.85;0.00;0.00;0.62;;;;;11.20;1.00;;;;;;2272188;61;1501;-88
2024/02/11 07:25:08;8110.00;0.03;14.67;0.00;0.00;0.62;;;;;11.20;1.00;;;;;;2308540;55;3764;-89
2024/02/11 07:27:35;40890.00;0.14;71.43;0.00;0.00;0.62;;;;;11.50;1.00;;;;;;2280596;39;3593;-87
2024/02/11 07:30:03;0.00;0.00;0.62;0.00;0.00;0.62;;;;;11.70;1.00;;;;;;2272318;61;918;-88
2024/02/11 07:32:31;124072.00;0.41;215.11;0.00;0.00;0.62;;;;;11.60;1.00;;;;;;2272310;61;1392;-88
2024/02/11 07:34:58;44488.00;0.15;77.65;0.00;0.00;0.62;;;;;11.50;1.00;;;;;;2272250;61;1063;-88
2024/02/11 07:37:27;63144.00;0.21;109.91;0.00;0.00;0.62;;;;;11.70;1.00;;;;;;2272215;61;941;-87
2024/02/11 07:39:54;0.00;0.00;0.62;0.00;0.00;0.62;;;;;11.50;1.00;;;;;;2272310;61;1748;-86
2024/02/11 07:42:22;15686.00;0.05;27.80;0.00;0.00;0.62;;;;;11.50;1.00;;;;;;2272269;61;1703;-87
2024/02/11 07:44:50;18932.00;0.06;33.42;0.00;0.00;0.62;;;;;11.80;1.00;;;;;;2281139;55;3752;-87
2024/02/11 07:47:17;28038.00;0.09;49.19;0.00;0.00;0.62;;;;;11.70;1.00;;;;;;2272217;61;1008;-88
2024/02/11 07:49:44;71236.00;0.24;123.90;0.00;0.00;0.62;;;;;11.50;1.00;;;;;;2272238;61;2405;-88
2024/02/11 07:52:12;29348.00;0.10;51.45;0.00;0.00;0.62;;;;;11.50;1.00;;;;;;2296594;55;3778;-87
2024/02/11 07:54:41;11900.00;0.04;21.24;0.00;0.00;0.62;;;;;11.70;1.00;;;;;;2272199;61;1120;-88
2024/02/11 07:57:08;144498.00;0.48;250.32;42849.00;0.14;74.82;;;;;11.40;1.00;;;;;;2272195;61;1002;-87
2024/02/11 08:02:07;344817.00;1.15;594.95;0.00;0.00;0.62;;;;;11.70;1.00;;;;;;2273966;61;1363;-87
2024/02/11 08:04:35;74050.00;0.25;128.76;0.00;0.00;0.62;;;;;11.60;1.00;;;;;;2268104;61;1594;-89
2024/02/11 08:07:02;0.00;0.00;0.62;0.00;0.00;0.62;;;;;11.40;1.00;;;;;;2268043;61;1063;-87
2024/02/11 08:09:29;44602.00;0.15;77.85;0.00;0.00;0.62;;;;;11.40;1.00;;;;;;2268109;61;2004;-87
2024/02/11 08:11:58;295770.00;0.99;510.65;0.00;0.00;0.62;;;;;11.20;1.00;;;;;;2267682;61;999;-88
2024/02/11 08:14:26;91436.00;0.30;158.79;0.00;0.00;0.62;;;;;11.30;1.00;;;;;;2267935;61;1635;-89
2024/02/11 08:16:53;0.00;0.00;0.62;0.00;0.00;0.62;;;;;11.60;1.00;;;;;;2268182;61;1007;-86
2024/02/11 08:19:20;57538.00;0.19;100.22;0.00;0.00;0.62;;;;;11.30;1.00;;;;;;2267990;61;1130;-88
2024/02/11 08:21:47;10596.00;0.04;18.98;0.00;0.00;0.62;;;;;11.30;1.00;;;;;;2268044;61;1490;-87
2024/02/11 08:24:14;117796.00;0.39;204.28;0.00;0.00;0.62;;;;;11.60;1.00;;;;;;2268139;61;1341;-87
2024/02/11 08:26:41;98417.00;0.33;170.84;0.00;0.00;0.62;;;;;11.30;1.00;;;;;;2268098;61;1607;-87
2024/02/11 08:29:10;25701.00;0.09;45.14;0.00;0.00;0.62;;;;;11.20;1.00;;;;;;2267960;61;2408;-87
2024/02/11 08:31:37;0.00;0.00;0.62;0.00;0.00;0.62;;;;;11.30;1.00;;;;;;2268105;61;1282;-88
2024/02/11 08:34:04;31430.00;0.10;55.06;0.00;0.00;0.62;;;;;11.70;1.00;;;;;;2268016;61;1287;-88
2024/02/11 08:36:31;17994.00;0.06;31.80;0.00;0.00;0.62;;;;;11.70;1.00;;;;;;2268275;61;1010;-87
2024/02/11 08:39:00;4515.00;0.02;8.45;0.00;0.00;0.62;;;;;11.80;1.00;;;;;;2268921;61;1017;-87
2024/02/11 08:41:27;15336.00;0.05;27.19;0.00;0.00;0.62;;;;;11.90;1.00;;;;;;2268756;61;1556;-88
2024/02/11 08:43:54;103619.00;0.35;179.82;0.00;0.00;0.62;;;;;12.00;1.00;;;;;;2268638;61;1376;-88
2024/02/11 08:46:22;27719.00;0.09;48.63;0.00;0.00;0.62;;;;;11.70;1.00;;;;;;2268822;61;1727;-88
2024/02/11 08:48:50;0.00;0.00;0.62;0.00;0.00;0.62;;;;;11.80;1.00;;;;;;2268686;61;2001;-87
2024/02/11 08:51:20;6069.00;0.02;11.14;0.00;0.00;0.62;;;;;11.60;1.00;;;;;;2268666;61;1717;-88
2024/02/11 08:53:47;0.00;0.00;0.62;0.00;0.00;0.62;;;;;11.60;1.00;;;;;;2268764;61;1389;-88
2024/02/11 08:56:15;19948.00;0.07;35.18;0.00;0.00;0.62;;;;;11.80;1.00;;;;;;2268676;61;900;-87
2024/02/11 08:58:42;33976.00;0.11;59.46;0.00;0.00;0.62;;;;;11.50;1.00;;;;;;2268714;61;1295;-88
2024/02/11 09:01:09;0.00;0.00;0.62;0.00;0.00;0.62;;;;;11.60;1.00;;;;;;2268686;61;1015;-88
2024/02/11 09:03:38;124657.00;0.42;216.11;0.00;0.00;0.62;;;;;11.70;1.00;;;;;;2268647;61;1538;-87
2024/02/11 09:06:06;0.00;0.00;0.62;0.00;0.00;0.62;;;;;11.40;1.00;;;;;;2268605;61;1551;-88
2024/02/11 09:08:33;0.00;0.00;0.62;0.00;0.00;0.62;;;;;11.40;1.00;;;;;;2268589;61;1922;-88
2024/02/11 09:11:03;129717.00;0.43;224.84;0.00;0.00;0.62;;;;;11.60;1.00;;;;;;2268601;61;1021;-87
2024/02/11 09:13:33;49585.00;0.17;86.47;0.00;0.00;0.62;;;;;11.50;1.00;;;;;;2268575;61;1529;-88
2024/02/11 09:16:00;256452.00;0.85;443.05;30854.00;0.10;54.06;;;;;11.30;1.00;;;;;;2268744;61;1035;-87
2024/02/11 09:18:28;113394.00;0.38;196.69;0.00;0.00;0.62;;;;;11.30;1.00;;;;;;2268464;61;1524;-88
2024/02/11 09:20:56;2517.00;0.01;4.98;0.00;0.00;0.62;;;;;11.80;1.00;;;;;;2273585;55;3738;-88
2024/02/11 09:23:23;158186.00;0.53;273.91;0.00;0.00;0.62;;;;;11.50;1.00;;;;;;2273308;61;1328;-89
2024/02/11 09:25:50;4248.00;0.01;7.98;0.00;0.00;0.62;;;;;11.70;1.00;;;;;;2273331;61;1204;-87
2024/02/11 09:28:20;248360.00;0.83;429.13;0.00;0.00;0.62;;;;;11.40;1.00;;;;;;2273312;61;1915;-87
2024/02/11 09:30:47;8877.00;0.03;16.00;0.00;0.00;0.62;;;;;11.40;1.00;;;;;;2272632;61;1300;-88
2024/02/11 09:38:14;347970.00;1.16;600.37;0.00;0.00;0.62;;;;;12.00;1.00;;;;;;2313166;56;3573;-87
2024/02/11 09:40:43;120067232.00;400.22;70117848.00;0.00;0.00;0.62;;;;;11.80;1.00;;;;;;2285539;55;3761;-88
2024/02/11 09:45:40;284474.00;0.95;491.23;0.00;0.00;0.62;;;;;11.80;1.00;;;;;;2270094;61;1382;-88
2024/02/11 09:48:09;28402.00;0.09;49.82;0.00;0.00;0.62;;;;;12.10;1.00;;;;;;2268211;61;974;-88
2024/02/11 09:53:08;229573.00;0.77;396.81;0.00;0.00;0.62;;;;;12.60;1.00;;;;;;2297292;39;3604;-85
2024/02/11 10:00:32;618634.00;2.06;1066.41;18859.00;0.06;33.29;;;;;12.70;1.00;;;;;;2288445;40;3512;-89
2024/02/11 10:03:03;96710.00;0.32;167.89;0.00;0.00;0.62;;;;;12.90;1.00;;;;;;2280019;55;3800;-87
2024/02/11 10:15:27;58532.00;0.20;101.94;0.00;0.00;0.62;;;;;13.00;1.00;;;;;;2274087;61;1817;-88
2024/02/11 10:17:56;83583.00;0.28;145.23;0.00;0.00;0.62;;;;;12.90;1.00;;;;;;2272484;61;1525;-87
2024/02/11 10:25:23;242725.00;0.81;419.44;0.00;0.00;0.62;;;;;12.10;1.00;;;;;;2273938;61;1392;-87
2024/02/11 10:27:50;168933.00;0.56;292.43;26436.00;0.09;46.41;;;;;12.20;1.00;;;;;;2272455;61;983;-89
2024/02/11 10:30:18;127221.00;0.42;220.54;0.00;0.00;0.62;;;;;12.30;1.00;;;;;;2272296;61;2001;-88
2024/02/11 10:32:46;176648.00;0.59;305.72;0.00;0.00;0.62;;;;;12.70;1.00;;;;;;2272373;61;1294;-89
2024/02/11 10:35:17;120294.00;0.40;208.59;0.00;0.00;0.62;;;;;12.80;1.00;;;;;;2272352;61;1088;-88
2024/02/11 10:37:46;163926.00;0.55;283.80;0.00;0.00;0.62;;;;;12.80;1.00;;;;;;2272427;61;1536;-87
2024/02/11 10:40:13;28082.00;0.09;49.26;0.00;0.00;0.62;;;;;12.70;1.00;;;;;;2272330;61;1051;-87
2024/02/11 10:42:40;104627.00;0.35;181.56;37102.00;0.12;64.87;;;;;12.70;1.00;;;;;;2272406;61;1562;-88
2024/02/11 10:45:09;28935.00;0.10;50.74;0.00;0.00;0.62;;;;;13.00;1.00;;;;;;2289277;39;3557;-89
2024/02/11 10:47:36;23886.00;0.08;42.00;0.00;0.00;0.62;;;;;13.10;1.00;;;;;;2272272;61;1470;-89
2024/02/11 10:50:03;151594.00;0.51;262.55;0.00;0.00;0.62;;;;;12.80;1.00;;;;;;2272211;61;2022;-88
2024/02/11 10:52:39;0.00;0.00;0.62;0.00;0.00;0.62;;;;;12.60;1.00;;;;;;2272341;61;1288;-88
2024/02/11 10:57:45;63023.00;0.21;109.70;0.00;0.00;0.62;;;;;13.10;1.00;;;;;;2269773;61;1327;-89
2024/02/11 11:02:46;491101.00;1.64;846.50;8031.00;0.03;14.54;;;;;13.20;1.00;;;;;;2273697;61;1423;-89
2024/02/11 11:05:20;176792.00;0.59;305.96;0.00;0.00;0.62;;;;;13.30;1.00;;;;;;2272101;61;986;-90
2024/02/11 11:07:53;0.00;0.00;0.62;0.00;0.00;0.62;;;;;13.50;1.00;;;;;;2272327;61;1252;-88
2024/02/11 11:10:20;107672.00;0.36;186.81;0.00;0.00;0.62;;;;;13.40;1.00;;;;;;2280628;39;3417;-87
2024/02/11 11:25:16;429881.00;1.43;741.18;0.00;0.00;0.62;;;;;12.40;1.00;;;;;;2269616;61;1187;-89
2024/02/11 11:27:43;232956.00;0.78;402.63;89612.00;0.30;155.64;;;;;12.60;1.00;;;;;;2268069;61;1203;-87
2024/02/11 11:30:14;15162.00;0.05;26.89;0.00;0.00;0.62;;;;;12.90;1.00;;;;;;2268155;61;1997;-90
2024/02/11 11:32:46;126870.00;0.42;219.93;3848.00;0.01;7.29;;;;;13.20;1.00;;;;;;2275868;40;3805;-91
2024/02/11 11:37:49;473149.00;1.58;815.61;0.00;0.00;0.62;;;;;13.50;1.00;;;;;;2298583;40;3559;-89
2024/02/11 11:52:43;349257.00;1.16;602.58;0.00;0.00;0.62;;;;;13.30;1.00;;;;;;2273710;61;1393;-88
2024/02/11 11:57:38;545500.00;1.82;940.20;0.00;0.00;0.62;;;;;14.10;1.00;;;;;;2273751;61;1424;-89
2024/02/11 12:15:06;661277.00;2.20;1140.15;0.00;0.00;0.62;;;;;13.10;1.00;;;;;;2277963;55;3700;-89
2024/02/11 12:20:12;323231.00;1.08;557.85;0.00;0.00;0.62;;;;;13.00;1.00;;;;;;2274427;61;1331;-90
2024/02/11 12:22:39;10265.00;0.03;18.41;89105.00;0.30;154.76;;;;;13.40;1.00;;;;;;2272094;61;1399;-88
2024/02/11 12:25:07;117320144.00;391.07;65410204.00;0.00;0.00;0.62;;;;;13.80;1.00;;;;;;2271911;61;1555;-89
2024/02/11 12:32:34;272175.00;0.91;470.08;0.00;0.00;0.62;;;;;14.00;1.00;;;;;;2273692;61;1412;-89
2024/02/11 12:35:02;118062.00;0.39;204.74;0.00;0.00;0.62;;;;;14.10;1.00;;;;;;2271819;61;1788;-89
2024/02/11 12:44:55;189729.00;0.63;328.24;0.00;0.00;0.62;;;;;12.80;1.00;;;;;;2341123;40;3493;-87
2024/02/11 12:52:26;526881.00;1.76;908.12;0.00;0.00;0.62;;;;;13.20;1.00;;;;;;2309035;39;3533;-88
2024/02/11 13:17:27;724786.00;2.42;1250.25;145598.00;0.49;252.22;;;;;13.70;1.00;;;;;;2283635;55;3689;-89
2024/02/11 13:37:52;1043892.00;3.48;1810.37;18139.00;0.06;32.05;;;;;13.50;1.00;;;;;;2333047;39;3491;-90
2024/02/11 15:05:34;485812.00;1.62;837.40;0.00;0.00;0.62;;;;;14.30;1.00;;;;;;2270537;61;1011;-91
2024/02/11 15:08:01;217223.00;0.72;375.57;0.00;0.00;0.62;;;;;13.80;1.00;;;;;;2268904;61;1672;-90
2024/02/11 15:10:29;114018.00;0.38;197.76;0.00;0.00;0.62;;;;;13.40;1.00;;;;;;2268965;61;1914;-91
2024/02/11 15:12:59;331275.00;1.10;571.68;5403.00;0.02;9.98;;;;;13.50;1.00;;;;;;2268914;61;1585;-90
2024/02/11 15:28:21;848697.00;2.83;1466.19;78437.00;0.26;136.34;;;;;13.10;1.00;;;;;;2270907;61;962;-90
2024/02/11 16:56:59;733700.00;2.45;1265.73;0.00;0.00;0.62;;;;;13.70;1.00;;;;;;2513495;55;3591;31
2024/02/11 18:10:13;977933.00;3.26;1693.43;62578.00;0.21;108.93;;;;;12.90;1.00;;;;;;2270910;61;1879;-91
2024/02/11 18:15:12;1055825.00;3.52;1831.60;34176.00;0.11;59.81;;;;;12.60;1.00;;;;;;2270941;61;1288;-91
2024/02/11 18:25:17;118422888.00;394.74;67273744.00;11651.00;0.04;20.81;;;;;11.80;1.00;;;;;;2274548;61;1000;-91
2024/02/11 18:27:44;247103.00;0.82;426.97;0.00;0.00;0.62;;;;;12.00;1.00;;;;;;2273090;61;1511;-88
2024/02/11 18:30:15;89313.00;0.30;155.12;0.00;0.00;0.62;;;;;12.30;1.00;;;;;;2273177;61;1998;-91
2024/02/11 18:32:43;101695.00;0.34;176.50;0.00;0.00;0.62;;;;;12.40;1.00;;;;;;2273077;61;1281;-90
2024/02/11 18:35:11;246007.00;0.82;425.08;0.00;0.00;0.62;;;;;12.50;1.00;;;;;;2273116;61;1700;-90
2024/02/11 18:47:59;544407.00;1.81;938.32;0.00;0.00;0.62;;;;;11.40;1.00;;;;;;2270766;61;1081;-90
2024/02/11 19:36:30;694836.00;2.32;1198.28;0.00;0.00;0.62;;;;;11.10;1.00;;;;;;2270395;61;1003;-90
2024/02/11 19:44:04;689903.00;2.30;1189.73;0.00;0.00;0.62;;;;;11.20;1.00;;;;;;2270644;61;1297;-91
2024/02/11 19:49:13;607933.00;2.03;1047.92;0.00;0.00;0.62;;;;;11.40;1.00;;;;;;2270716;61;1203;-89
2024/02/11 19:56:50;656921.00;2.19;1132.61;84963.00;0.28;147.61;;;;;11.70;1.00;;;;;;2270610;61;1291;-88
2024/02/11 20:19:55;667432.00;2.22;1150.81;33804.00;0.11;59.17;;;;;11.90;1.00;;;;;;2270202;61;1011;-91
2024/02/11 20:27:27;864269.00;2.88;1493.45;32656.00;0.11;57.18;;;;;11.60;1.00;;;;;;2270828;61;1003;-91
2024/02/11 20:32:51;538273.00;1.79;927.75;0.00;0.00;0.62;;;;;11.90;1.00;;;;;;2518102;55;3665;31
2024/02/11 21:28:30;1070999.00;3.57;1858.64;117085.00;0.39;203.05;;;;;13.00;1.00;;;;;;2270898;61;993;-90
2024/02/11 21:36:03;1486464.00;4.95;2617.68;0.00;0.00;0.62;;;;;12.60;1.00;;;;;;2270520;61;1316;-91
2024/02/11 21:43:35;1226590.00;4.09;2138.37;9501.00;0.03;17.08;;;;;12.30;1.00;;;;;;2270706;61;1365;-89
2024/02/11 21:51:05;1380524.00;4.60;2420.25;29455.00;0.10;51.64;;;;;11.60;1.00;;;;;;2270455;61;1940;-92
2024/02/11 21:56:03;776695.00;2.59;1340.51;0.00;0.00;0.62;;;;;11.60;1.00;;;;;;2270498;61;1261;-90
2024/02/11 22:41:48;572350.00;1.91;986.50;0.00;0.00;0.62;;;;;12.20;1.00;;;;;;2270581;61;1065;-91
2024/02/11 22:46:50;580160.00;1.93;999.97;0.00;0.00;0.62;;;;;11.90;1.00;;;;;;2270431;61;1284;-91
2024/02/11 23:59:47;1350834.00;4.50;2365.44;96801.00;0.32;168.05;;;;;11.70;1.00;;;;;;2512336;55;3552;31
